Latest Weather Observations for Cape Bruny AWS

IDT60901

Issued at 1:11 pm EST Friday 31 July 2015 (issued every 10 minutes, with the page automatically refreshed every 10 minutes)

About weather observations | Map of Hobart area stations | Latest observations for Hobart area | Other Formats
Station Details ID: 094198 Name: CAPE BRUNY (CAPE BRUNY) Lat: -43.49 Lon: 147.14 Height: 59.7 m
Data from the previous 72 hours. | See also: Recent months at Cape Bruny AWS
Date/Time
EST
Tmp

°C
App
Tmp
°C
Dew
Point
°C
Rel
Hum
%
Delta-T

°C
Wind Press
QNH
hPa
Press
MSL
hPa
Rain
since
9 am
mm
Dir
 
Spd
km/h
Gust
km/h
Spd
kts
Gust
kts
31/01:00pm 10.6 5.2 2.2 56 3.6 NW 20 30 11 16 1010.4 1010.5 0.0
31/12:30pm 9.5 5.5 2.8 63 2.9 NNW 13 19 7 10 1010.7 1010.8 0.0
31/12:00pm 9.8 4.9 2.2 59 3.2 NNW 17 24 9 13 1011.3 1011.4 0.0
31/11:30am 9.3 5.2 2.2 61 3.0 NNW 13 20 7 11 1011.7 1011.8 0.0
31/11:00am 8.2 3.3 1.8 64 2.6 NW 17 28 9 15 1011.8 1011.9 0.0
31/10:30am 7.2 1.2 1.1 65 2.5 NW 22 33 12 18 1011.9 1012.0 0.0
31/10:06am 7.6 0.6 1.9 67 2.3 NW 28 46 15 25 1012.0 1012.1 0.0
31/10:00am 7.2 -0.7 1.3 66 2.4 NW 32 46 17 25 1011.8 1011.9 0.0
31/09:30am 7.4 1.8 1.5 66 2.4 NW 20 30 11 16 1011.7 1011.8 0.0
31/09:00am 6.9 -0.6 1.2 67 2.3 NW 30 43 16 23 1011.8 1011.9 2.8
31/08:30am 6.8 -0.7 0.9 66 2.3 WNW 30 43 16 23 1011.7 1011.8 2.8
31/08:00am 6.6 -0.6 0.9 67 2.3 NW 28 39 15 21 1011.3 1011.4 2.8
31/07:30am 6.4 -1.8 0.1 64 2.4 WNW 33 46 18 25 1011.2 1011.3 2.8
31/07:00am 6.3 -2.4 -0.2 63 2.5 NW 35 43 19 23 1010.8 1010.9 2.8
31/06:30am 6.2 -2.4 0.5 67 2.2 NW 35 48 19 26 1010.3 1010.4 2.8
31/06:00am 6.3 -2.2 0.6 67 2.2 NW 35 48 19 26 1010.0 1010.1 2.8
31/05:30am 6.2 -2.0 -1.0 60 2.7 NW 32 43 17 23 1009.8 1009.9 2.8
31/05:00am 6.3 -1.9 -0.7 61 2.7 WNW 32 46 17 25 1009.8 1009.9 2.8
31/04:49am 6.5 -1.6 -0.5 61 2.7 WNW 32 50 17 27 1009.4 1009.5 2.8
31/04:30am 6.1 -2.0 -0.6 62 2.5 WNW 32 41 17 22 1009.1 1009.2 2.8
31/04:00am 6.3 -1.9 0.4 66 2.3 WNW 33 43 18 23 1009.1 1009.2 2.8
31/03:53am 5.7 -3.2 0.5 69 2.0 WNW 37 46 20 25 1009.0 1009.1 2.8
31/03:30am 5.2 -5.3 1.7 78 1.4 W 46 63 25 34 1008.8 1008.9 2.8
31/03:25am 5.5 -4.4 1.6 76 1.6 W 43 63 23 34 1008.9 1009.0 2.8
31/03:00am 6.0 -1.9 1.3 72 1.9 WNW 32 44 17 24 1008.7 1008.8 2.6
31/02:30am 5.2 -4.3 1.9 79 1.3 W 41 52 22 28 1008.2 1008.3 2.6
31/02:20am 5.3 -4.2 1.6 77 1.5 W 41 61 22 33 1008.1 1008.2 2.6
31/02:00am 5.6 -4.4 1.3 74 1.7 WNW 43 56 23 30 1007.9 1008.0 2.6
31/01:30am 5.5 -7.1 1.6 76 1.6 W 57 85 31 46 1007.0 1007.1 2.6
31/01:01am 7.1 -4.3 0.5 63 2.6 W 50 69 27 37 1006.4 1006.5 2.6
31/01:00am 7.2 -4.6 0.6 63 2.6 W 52 69 28 37 1006.4 1006.5 2.6
31/12:39am 6.9 -4.4 1.4 68 2.2 W 50 69 27 37 1006.6 1006.7 2.6
31/12:30am 6.6 -5.0 1.9 72 1.9 W 52 69 28 37 1006.4 1006.5 2.4
31/12:20am 5.9 -7.0 1.6 74 1.7 W 59 78 32 42 1006.3 1006.4 2.4
31/12:14am 6.0 -6.5 1.9 75 1.7 W 57 78 31 42 1006.0 1006.1 2.4
31/12:07am 6.6 -3.8 2.1 73 1.8 W 46 65 25 35 1006.0 1006.1 2.4
31/12:00am 6.5 -3.5 2.4 75 1.7 W 44 57 24 31 1005.8 1005.9 2.4
 
Date/Time
EST
Tmp

°C
App
Tmp
°C
Dew
Point
°C
Rel
Hum
%
Delta-T

°C
Wind Press
QNH
hPa
Press
MSL
hPa
Rain
since
9 am
mm
Dir
 
Spd
km/h
Gust
km/h
Spd
kts
Gust
kts
30/11:30pm 6.5 -4.1 3.1 79 1.4 W 48 67 26 36 1005.4 1005.5 2.4
30/11:18pm 7.0 -3.2 3.1 76 1.6 W 46 67 25 36 1005.0 1005.1 2.2
30/11:00pm 7.3 -1.9 3.4 76 1.7 W 41 54 22 29 1004.7 1004.8 2.2
30/10:31pm 7.1 -3.9 3.0 75 1.7 WSW 50 69 27 37 1004.3 1004.3 2.0
30/10:30pm 6.9 -4.5 2.6 74 1.8 WSW 52 69 28 37 1004.3 1004.3 2.0
30/10:27pm 7.5 -4.7 2.6 71 2.0 WSW 56 74 30 40 1004.3 1004.3 2.0
30/10:20pm 7.6 -4.3 1.9 67 2.3 WSW 54 74 29 40 1004.0 1004.0 2.0
30/10:02pm 7.3 -2.3 3.2 75 1.7 WSW 43 72 23 39 1003.9 1003.9 2.0
30/10:00pm 7.3 -1.9 3.5 77 1.6 W 41 57 22 31 1004.1 1004.1 2.0
30/09:30pm 7.2 -5.1 3.3 76 1.7 W 57 80 31 43 1002.9 1002.9 2.0
30/09:00pm 7.1 -4.9 4.8 85 1.0 WSW 57 87 31 47 1002.5 1002.5 2.0
30/08:41pm 7.1 -4.2 3.7 79 1.5 WSW 52 89 28 48 1001.9 1001.9 1.4
30/08:35pm 7.8 -2.1 4.9 82 1.3 W 46 65 25 35 1001.6 1001.7 1.4
30/08:30pm 7.9 -1.9 5.2 83 1.2 W 46 61 25 33 1001.5 1001.6 1.4
30/08:07pm 7.3 -2.3 4.6 83 1.2 W 44 69 24 37 1000.8 1000.9 1.2
30/08:00pm 7.8 -1.4 5.3 84 1.1 W 43 50 23 27 1000.7 1000.8 1.0
30/07:55pm 7.8 -1.7 5.1 83 1.2 WNW 44 59 24 32 1000.4 1000.5 1.0
30/07:30pm 8.7 -1.0 4.1 73 2.0 WNW 44 61 24 33 998.4 998.5 0.4
30/07:00pm 8.6 1.1 4.6 76 1.8 NW 33 57 18 31 998.1 998.2 0.4
30/06:39pm 8.7 0.3 5.4 80 1.5 W 39 56 21 30 998.0 998.1 0.4
30/06:34pm 9.3 0.2 5.9 79 1.6 WNW 43 57 23 31 997.9 998.0 0.4
30/06:30pm 10.1 1.8 6.3 77 1.8 NW 39 57 21 31 997.5 997.6 0.2
30/06:14pm 10.5 4.2 5.5 71 2.3 NW 28 46 15 25 997.2 997.3 0.0
30/06:00pm 10.4 5.7 5.0 69 2.5 NNW 19 28 10 15 996.7 996.8 0.0
30/05:30pm 10.0 5.2 4.8 70 2.3 NNW 19 32 10 17 996.0 996.1 0.0
30/05:00pm 10.7 5.4 4.8 67 2.7 N 22 35 12 19 996.5 996.6 0.0
30/04:37pm 11.0 4.5 4.5 64 2.9 NNW 28 48 15 26 996.9 997.0 0.0
30/04:30pm 11.0 6.0 4.7 65 2.9 NNW 20 39 11 21 997.1 997.2 0.0
30/04:00pm 11.6 5.9 5.0 64 3.0 NNW 24 37 13 20 998.0 998.1 0.0
30/03:40pm 12.0 5.2 5.2 63 3.1 NNW 30 50 16 27 998.2 998.3 0.0
30/03:30pm 12.5 5.9 4.2 57 3.8 NNW 28 43 15 23 998.2 998.3 0.0
30/03:00pm 12.7 6.8 3.9 55 4.0 NW 24 39 13 21 998.9 999.0 0.0
30/02:30pm 12.6 7.4 3.8 55 4.0 N 20 35 11 19 999.5 999.6 0.0
30/02:00pm 12.2 6.6 3.4 55 3.9 N 22 32 12 17 999.8 999.9 0.0
30/01:30pm 12.8 6.7 2.9 51 4.4 N 24 35 13 19 1000.5 1000.6 0.0
30/01:00pm 14.2 8.1 2.8 46 5.1 N 24 43 13 23 1001.2 1001.3 0.0
30/12:30pm 13.9 9.0 4.2 52 4.5 N 19 30 10 16 1002.6 1002.6 0.0
30/12:00pm 11.2 6.1 3.3 58 3.5 NNW 19 30 10 16 1003.9 1003.9 0.0
30/11:30am 10.5 4.0 2.6 58 3.4 NNW 26 35 14 19 1005.0 1005.1 0.0
30/11:00am 10.3 2.6 2.4 58 3.4 NNW 32 41 17 22 1006.1 1006.2 0.0
30/10:32am 10.2 2.8 2.1 57 3.4 NW 30 52 16 28 1006.3 1006.4 0.0
30/10:30am 10.2 3.2 2.1 57 3.4 NNW 28 41 15 22 1006.6 1006.7 0.0
30/10:00am 10.0 5.2 2.4 59 3.2 NNE 17 35 9 19 1007.6 1007.7 0.0
30/09:30am 10.1 4.7 2.5 59 3.2 NW 20 32 11 17 1008.4 1008.5 0.0
30/09:00am 10.0 5.6 2.8 61 3.1 NW 15 30 8 16 1009.1 1009.2 0.0
30/08:30am 10.0 6.0 3.1 62 3.0 N 13 20 7 11 1009.6 1009.7 0.0
30/08:00am 9.9 5.6 3.2 63 2.9 NNE 15 28 8 15 1010.4 1010.5 0.0
30/07:30am 9.7 5.9 3.7 66 2.6 NNE 13 19 7 10 1010.8 1010.9 0.0
30/07:00am 9.7 5.0 3.4 65 2.7 N 17 24 9 13 1011.0 1011.1 0.0
30/06:30am 9.9 4.7 3.4 64 2.8 N 20 28 11 15 1011.5 1011.6 0.0
30/06:00am 10.0 4.4 3.5 64 2.8 N 22 33 12 18 1012.0 1012.1 0.0
30/05:30am 9.9 4.7 3.6 65 2.8 NNW 20 32 11 17 1012.3 1012.4 0.0
30/05:01am 10.6 3.1 3.2 60 3.2 NW 32 50 17 27 1012.7 1012.8 0.0
30/05:00am 10.6 2.9 3.2 60 3.2 NW 33 50 18 27 1012.7 1012.8 0.0
30/04:53am 10.7 3.2 3.3 60 3.2 NW 32 46 17 25 1012.8 1012.9 0.0
30/04:30am 9.9 4.7 3.6 65 2.8 NNW 20 28 11 15 1013.5 1013.6 0.0
30/04:00am 10.4 4.0 3.4 62 3.1 NW 26 35 14 19 1013.7 1013.8 0.0
30/03:30am 10.4 3.7 3.9 64 2.9 NW 28 41 15 22 1014.2 1014.3 0.0
30/03:26am 10.4 5.0 4.3 66 2.7 NNW 22 41 12 22 1014.2 1014.3 0.0
30/03:00am 9.2 5.6 5.0 75 1.9 N 13 22 7 12 1014.7 1014.8 0.0
30/02:30am 9.0 6.1 4.6 74 2.0 NE 9 15 5 8 1015.5 1015.6 0.0
30/02:00am 9.1 6.6 4.9 75 1.9 E 7 15 4 8 1015.6 1015.7 0.0
30/01:30am 9.9 5.2 5.1 72 2.2 NNW 19 30 10 16 1016.0 1016.1 0.0
30/01:00am 10.1 6.2 5.5 73 2.1 NNW 15 24 8 13 1016.7 1016.8 0.0
30/12:30am 10.3 5.6 5.3 71 2.3 NNW 19 30 10 16 1017.0 1017.1 0.0
30/12:00am 10.0 6.6 5.8 75 1.9 N 13 19 7 10 1017.3 1017.4 0.0
 
Date/Time
EST
Tmp

°C
App
Tmp
°C
Dew
Point
°C
Rel
Hum
%
Delta-T

°C
Wind Press
QNH
hPa
Press
MSL
hPa
Rain
since
9 am
mm
Dir
 
Spd
km/h
Gust
km/h
Spd
kts
Gust
kts
29/11:30pm 10.0 6.2 5.8 75 1.9 NNW 15 20 8 11 1017.9 1018.0 0.0
29/11:00pm 9.7 6.2 5.3 74 2.0 N 13 20 7 11 1018.2 1018.3 0.0
29/10:30pm 10.1 5.8 5.1 71 2.3 NNW 17 24 9 13 1018.6 1018.8 0.0
29/10:00pm 10.0 7.6 5.2 72 2.2 N 7 15 4 8 1019.2 1019.3 0.0
29/09:30pm 9.8 6.8 5.8 76 1.8 N 11 20 6 11 1019.4 1019.5 0.0
29/09:00pm 9.7 6.6 5.7 76 1.8 NNE 11 15 6 8 1019.7 1019.8 0.0
29/08:30pm 9.7 6.6 5.7 76 1.8 NNE 11 15 6 8 1019.9 1020.0 0.0
29/08:00pm 9.8 5.9 5.4 74 2.0 N 15 20 8 11 1019.9 1020.0 0.0
29/07:30pm 9.6 6.0 5.0 73 2.1 N 13 20 7 11 1020.1 1020.2 0.0
29/07:00pm 10.0 5.2 4.8 70 2.3 NNW 19 28 10 15 1020.3 1020.4 0.0
29/06:30pm 9.6 5.7 5.2 74 2.0 N 15 20 8 11 1020.4 1020.5 0.0
29/06:00pm 9.8 5.6 5.6 75 1.9 N 17 24 9 13 1020.2 1020.3 0.0
29/05:30pm 9.6 5.7 5.4 75 1.9 N 15 22 8 12 1020.6 1020.7 0.0
29/05:00pm 9.5 6.5 5.9 78 1.6 N 11 15 6 8 1020.8 1020.9 0.0
29/04:30pm 9.9 6.9 6.1 77 1.8 N 11 17 6 9 1021.1 1021.2 0.0
29/04:00pm 10.1 7.5 6.1 76 1.8 N 9 15 5 8 1021.4 1021.5 0.0
29/03:30pm 10.3 7.3 6.1 75 2.0 N 11 17 6 9 1021.7 1021.8 0.0
29/03:00pm 10.8 7.4 6.0 72 2.2 NNW 13 17 7 9 1021.7 1021.8 0.0
29/02:30pm 10.7 7.4 6.5 75 2.0 N 13 19 7 10 1022.0 1022.1 0.0
29/02:00pm 10.7 7.0 6.1 73 2.1 N 15 19 8 10 1022.5 1022.6 0.0
29/01:30pm 11.3 8.8 6.6 73 2.2 N 9 13 5 7 1022.9 1023.0 0.0
29/01:00pm 11.5 7.7 6.0 69 2.6 NW 15 20 8 11 1023.5 1023.6 0.0
29/12:30pm 11.6 8.6 5.9 68 2.7 NNW 11 19 6 10 1023.8 1023.9 0.0
29/12:00pm 11.6 8.2 5.9 68 2.7 NNW 13 17 7 9 1024.4 1024.5 0.0
29/11:30am 12.0 8.6 6.1 67 2.8 NNE 13 20 7 11 1025.0 1025.1 0.0
29/11:00am 12.2 8.4 5.6 64 3.1 NNW 15 20 8 11 1025.4 1025.5 0.0
29/10:30am 11.8 8.0 5.7 66 2.8 NNW 15 20 8 11 1025.7 1025.8 0.0
29/10:00am 11.6 8.2 6.1 69 2.6 NNW 13 17 7 9 1025.8 1025.9 0.0
29/09:30am 11.0 7.7 6.2 72 2.2 NNW 13 17 7 9 1026.0 1026.1 0.0
29/09:00am 10.3 7.0 6.5 77 1.8 N 13 17 7 9 1026.2 1026.3 0.0
29/08:30am 8.2 4.3 5.5 83 1.2 N 15 17 8 9 1026.4 1026.5 0.0
29/08:00am 8.1 3.5 5.4 83 1.2 N 19 22 10 12 1026.2 1026.3 0.0
29/07:30am 7.6 3.8 5.6 87 0.9 N 15 20 8 11 1026.0 1026.1 0.0
29/07:00am 7.8 3.6 5.8 87 0.9 N 17 20 9 11 1026.0 1026.1 0.0
29/06:30am 7.8 4.0 5.8 87 0.9 N 15 19 8 10 1025.7 1025.8 0.0
29/06:00am 7.9 3.7 5.5 85 1.1 N 17 20 9 11 1025.8 1025.9 0.0
29/05:30am 8.4 4.4 5.0 79 1.5 NW 15 19 8 10 1025.6 1025.7 0.0
29/05:00am 9.7 3.4 5.9 77 1.7 NW 28 37 15 20 1025.3 1025.4 0.0
29/04:50am 9.3 4.2 6.2 81 1.4 NW 22 35 12 19 1025.2 1025.3 0.0
29/04:30am 7.9 4.5 5.7 86 1.0 N 13 17 7 9 1025.4 1025.5 0.0
29/04:00am 8.3 3.8 6.1 86 1.0 N 19 20 10 11 1025.4 1025.5 0.0
29/03:30am 8.2 4.4 6.0 86 1.0 N 15 19 8 10 1025.5 1025.6 0.0
29/03:00am 8.4 4.3 6.2 86 1.0 N 17 20 9 11 1025.9 1026.0 0.0
29/02:30am 8.2 4.4 5.8 85 1.1 N 15 19 8 10 1025.9 1026.0 0.0
29/02:00am 9.1 5.4 6.5 84 1.2 NW 15 22 8 12 1026.1 1026.2 0.0
29/01:30am 9.4 5.4 6.7 83 1.3 NW 17 20 9 11 1026.0 1026.1 0.0
29/01:00am 8.1 4.0 6.2 88 0.9 N 17 20 9 11 1026.1 1026.2 0.0
29/12:30am 7.8 4.4 5.9 88 0.9 N 13 13 7 7 1026.3 1026.4 0.0
29/12:00am 8.5 6.8 6.1 85 1.1 WNW 4 11 2 6 1026.4 1026.5 0.0
 
Date/Time
EST
Tmp

°C
App
Tmp
°C
Dew
Point
°C
Rel
Hum
%
Delta-T

°C
Wind Press
QNH
hPa
Press
MSL
hPa
Rain
since
9 am
mm
Dir
 
Spd
km/h
Gust
km/h
Spd
kts
Gust
kts
28/11:30pm 8.1 6.3 5.6 84 1.1 WSW 4 9 2 5 1026.6 1026.7 0.0
28/11:00pm 9.2 8.1 7.0 86 1.0 W 2 9 1 5 1026.6 1026.7 0.0
28/10:30pm 9.0 6.9 6.6 85 1.1 WSW 7 9 4 5 1026.5 1026.6 0.0
28/10:00pm 9.3 6.9 7.1 86 1.0 WNW 9 13 5 7 1026.5 1026.6 0.0
28/09:30pm 9.3 8.6 6.9 85 1.1 CALM 0 0 0 0 1026.5 1026.6 0.0
28/09:00pm 9.3 6.5 6.9 85 1.1 WSW 11 15 6 8 1026.3 1026.4 0.0
28/08:30pm 9.9 5.2 7.7 86 1.1 WSW 22 28 12 15 1026.0 1026.1 0.0
28/08:00pm 10.2 4.8 8.0 86 1.1 WSW 26 33 14 18 1025.9 1026.0 0.0
28/07:30pm 10.1 5.1 8.0 87 1.0 WSW 24 32 13 17 1025.9 1026.0 0.0
28/07:00pm 10.1 6.0 7.9 86 1.1 WSW 19 28 10 15 1025.9 1026.0 0.0
28/06:30pm 10.2 5.5 7.8 85 1.2 WSW 22 32 12 17 1025.6 1025.7 0.0
28/06:00pm 10.2 5.1 7.6 84 1.2 WSW 24 30 13 16 1025.4 1025.5 0.0
28/05:30pm 10.3 4.4 7.7 84 1.3 WSW 28 35 15 19 1025.1 1025.2 0.0
28/05:00pm 10.6 3.0 7.7 82 1.4 WSW 37 44 20 24 1024.9 1025.0 0.0
28/04:30pm 10.7 2.8 7.8 82 1.4 WSW 39 46 21 25 1024.6 1024.7 0.0
28/04:00pm 10.9 3.8 8.1 83 1.4 WSW 35 46 19 25 1024.5 1024.6 0.0
28/03:30pm 11.5 5.4 8.2 80 1.6 WSW 30 43 16 23 1024.5 1024.6 0.0
28/03:00pm 11.5 4.4 8.0 79 1.7 WSW 35 46 19 25 1024.2 1024.3 0.0
28/02:30pm 11.4 5.3 8.1 80 1.6 WSW 30 39 16 21 1024.0 1024.1 0.0
28/02:00pm 11.7 7.1 8.0 78 1.8 W 22 32 12 17 1024.1 1024.2 0.0
28/01:30pm 12.4 8.7 7.9 74 2.2 WSW 17 20 9 11 1024.1 1024.2 0.0

Latest Capital City Observations: Canberra | Sydney | Melbourne | Brisbane | Adelaide | Perth | Hobart | Darwin

Other Formats:

Comma delimited format used in spreadsheet applications
http://www.bom.gov.au/fwo/IDT60901/IDT60901.95967.axf

JavaScript Object Notation format (JSON) in row-major order
http://www.bom.gov.au/fwo/IDT60901/IDT60901.95967.json